createdAt,value
2023-12-20T00:01:01.555Z,17.80
2023-12-20T00:03:59.520Z,21.30
2023-12-20T00:06:47.432Z,35.50
2023-12-20T00:09:26.885Z,21.00
2023-12-20T00:12:09.173Z,16.00
2023-12-20T00:14:54.865Z,16.20
2023-12-20T00:17:49.357Z,16.40
2023-12-20T00:20:31.801Z,19.30
2023-12-20T00:23:06.176Z,25.60
2023-12-20T00:25:48.634Z,18.30
2023-12-20T00:28:34.125Z,18.20
2023-12-20T00:31:10.271Z,28.40
2023-12-20T00:33:52.109Z,13.40
2023-12-20T00:36:23.597Z,22.60
2023-12-20T00:39:27.073Z,20.60
2023-12-20T00:42:15.606Z,21.90
2023-12-20T00:44:54.058Z,13.60
2023-12-20T00:47:53.968Z,23.90
2023-12-20T00:50:35.362Z,18.70
2023-12-20T00:53:19.572Z,13.00
2023-12-20T00:56:09.510Z,10.90
2023-12-20T00:58:49.639Z,24.10
2023-12-20T01:01:42.120Z,12.40
2023-12-20T01:04:36.521Z,18.00
2023-12-20T01:07:09.568Z,11.80
2023-12-20T01:09:48.533Z,16.40
2023-12-20T01:13:10.240Z,17.00
2023-12-20T01:16:20.905Z,15.40
2023-12-20T01:19:31.015Z,15.00
2023-12-20T01:22:39.789Z,14.60
2023-12-20T01:25:55.348Z,17.10
2023-12-20T01:28:54.499Z,18.00
2023-12-20T01:31:47.252Z,10.70
2023-12-20T01:34:53.936Z,13.10
2023-12-20T01:38:21.345Z,16.30
2023-12-20T01:41:24.555Z,13.10
2023-12-20T01:44:04.130Z,15.20
2023-12-20T01:47:01.270Z,17.30
2023-12-20T01:49:41.561Z,11.50
2023-12-20T01:52:35.268Z,14.70
2023-12-20T01:55:33.276Z,12.20
2023-12-20T01:58:19.926Z,17.10
2023-12-20T02:01:25.987Z,12.60
2023-12-20T02:05:00.484Z,19.80
2023-12-20T02:08:49.715Z,12.40
2023-12-20T02:12:21.503Z,14.10
2023-12-20T02:15:59.368Z,9.90
2023-12-20T02:19:47.456Z,14.70
2023-12-20T02:23:26.560Z,9.90
2023-12-20T02:26:38.094Z,9.70
2023-12-20T02:29:17.064Z,9.40
2023-12-20T02:31:53.585Z,13.20
2023-12-20T02:34:52.695Z,13.60
2023-12-20T02:37:54.385Z,13.10
2023-12-20T02:40:58.077Z,10.60
2023-12-20T02:43:39.880Z,13.20
2023-12-20T02:46:20.771Z,17.60
2023-12-20T02:49:17.071Z,15.90
2023-12-20T02:52:54.033Z,14.50
2023-12-20T02:56:06.949Z,15.60
2023-12-20T02:58:39.713Z,15.90
2023-12-20T03:01:34.600Z,16.70
2023-12-20T03:04:26.876Z,15.50
2023-12-20T03:07:15.847Z,17.00
2023-12-20T03:10:06.669Z,13.10
2023-12-20T03:13:03.294Z,11.60
2023-12-20T03:15:49.744Z,11.00
2023-12-20T03:18:29.954Z,10.50
2023-12-20T03:21:53.275Z,17.80
2023-12-20T03:24:54.684Z,8.80
2023-12-20T03:27:36.870Z,13.70
2023-12-20T03:30:18.869Z,13.70
2023-12-20T03:33:12.514Z,14.80
2023-12-20T03:36:29.181Z,14.90
2023-12-20T03:39:14.551Z,12.40
2023-12-20T03:42:06.489Z,16.50
2023-12-20T03:44:58.814Z,12.00
2023-12-20T03:47:56.359Z,13.30
2023-12-20T03:50:53.986Z,11.00
2023-12-20T03:53:57.186Z,14.80
2023-12-20T03:56:36.500Z,13.10
2023-12-20T03:59:40.462Z,13.90
2023-12-20T04:02:16.794Z,15.60
2023-12-20T04:04:54.421Z,11.60
2023-12-20T04:07:50.516Z,11.80
2023-12-20T04:11:23.165Z,10.80
2023-12-20T04:14:54.446Z,13.90
2023-12-20T04:18:10.092Z,15.90
2023-12-20T04:20:52.864Z,14.50
2023-12-20T04:23:52.263Z,12.70
2023-12-20T04:26:33.964Z,12.40
2023-12-20T04:29:13.152Z,14.20
2023-12-20T04:31:43.876Z,15.20
2023-12-20T04:34:16.983Z,13.60
2023-12-20T04:37:02.975Z,17.40
2023-12-20T04:39:52.459Z,13.40
2023-12-20T04:43:06.292Z,16.60
2023-12-20T04:46:07.707Z,12.90
2023-12-20T04:48:54.872Z,14.00
2023-12-20T04:51:39.824Z,17.80
2023-12-20T04:55:00.644Z,11.10
2023-12-20T04:58:14.559Z,11.10
2023-12-20T05:01:22.005Z,12.70
2023-12-20T05:03:58.764Z,13.60
2023-12-20T05:07:06.604Z,12.70
2023-12-20T05:10:26.553Z,11.70
2023-12-20T05:13:12.483Z,15.30
2023-12-20T05:16:16.411Z,14.80
2023-12-20T05:19:02.195Z,15.60
2023-12-20T05:21:41.970Z,13.20
2023-12-20T05:24:23.827Z,14.10
2023-12-20T05:27:55.920Z,16.10
2023-12-20T05:31:45.210Z,22.20
2023-12-20T05:35:33.046Z,12.00
2023-12-20T05:39:16.538Z,10.80
2023-12-20T05:42:36.413Z,14.00
2023-12-20T05:45:42.310Z,16.90
2023-12-20T05:48:55.764Z,12.00
2023-12-20T05:52:02.218Z,13.80
2023-12-20T05:57:55.868Z,9.80
2023-12-20T06:01:01.659Z,12.20
2023-12-20T06:04:41.757Z,12.30
2023-12-20T06:08:03.931Z,12.10
2023-12-20T06:10:57.433Z,14.60
2023-12-20T06:13:50.020Z,11.70
2023-12-20T06:16:56.155Z,12.40
2023-12-20T06:20:12.649Z,11.10
2023-12-20T06:23:30.232Z,14.70
2023-12-20T06:26:43.858Z,22.00
2023-12-20T06:29:34.046Z,12.40
2023-12-20T06:32:58.718Z,9.70
2023-12-20T06:35:44.133Z,19.80
2023-12-20T06:38:35.528Z,13.50
2023-12-20T06:41:18.047Z,10.40
2023-12-20T06:43:54.886Z,12.50
2023-12-20T06:46:34.461Z,12.00
2023-12-20T06:49:21.137Z,13.00
2023-12-20T06:52:11.664Z,9.40
2023-12-20T06:54:56.943Z,10.80
2023-12-20T06:58:13.503Z,15.90
2023-12-20T07:01:14.505Z,14.40
2023-12-20T07:04:09.709Z,13.50
2023-12-20T07:07:04.320Z,16.30
2023-12-20T07:09:50.466Z,19.40
2023-12-20T07:12:30.628Z,13.20
2023-12-20T07:15:08.413Z,16.20
2023-12-20T07:18:08.770Z,11.90
2023-12-20T07:21:06.771Z,19.50
2023-12-20T07:24:24.517Z,17.80
2023-12-20T07:27:22.436Z,14.30
2023-12-20T07:29:56.780Z,15.30
2023-12-20T07:32:33.782Z,19.30
2023-12-20T07:35:25.100Z,15.70
2023-12-20T07:38:40.065Z,12.50
2023-12-20T07:41:30.328Z,12.60
2023-12-20T07:44:26.003Z,11.60
2023-12-20T07:47:23.810Z,14.20
2023-12-20T07:51:12.956Z,19.00
2023-12-20T07:54:57.214Z,9.60
2023-12-20T07:58:14.739Z,10.50
2023-12-20T08:01:25.007Z,10.50
2023-12-20T08:04:13.754Z,15.80
2023-12-20T08:07:13.233Z,23.70
2023-12-20T08:10:32.288Z,11.70
2023-12-20T08:13:11.118Z,14.30
2023-12-20T08:15:45.523Z,17.20
2023-12-20T08:18:20.406Z,15.30
2023-12-20T08:21:03.268Z,22.40
2023-12-20T08:23:49.646Z,20.40
2023-12-20T08:26:47.251Z,20.10
2023-12-20T08:30:35.425Z,18.00
2023-12-20T08:33:20.086Z,14.50
2023-12-20T08:36:20.876Z,17.40
2023-12-20T08:38:54.198Z,22.40
2023-12-20T08:42:10.264Z,15.40
2023-12-20T08:45:59.458Z,25.90
2023-12-20T08:48:57.810Z,22.80
2023-12-20T08:52:15.325Z,23.20
2023-12-20T08:56:04.089Z,24.40
2023-12-20T08:59:53.244Z,23.90
2023-12-20T09:03:21.182Z,32.00
2023-12-20T09:07:03.242Z,26.70
2023-12-20T09:10:38.603Z,22.00
2023-12-20T09:13:57.979Z,24.40
2023-12-20T09:17:04.484Z,25.90
2023-12-20T09:20:06.133Z,18.80
2023-12-20T09:23:12.779Z,23.40
2023-12-20T09:26:00.192Z,21.00
2023-12-20T09:29:10.601Z,29.60
2023-12-20T09:32:17.644Z,24.00
2023-12-20T09:35:34.207Z,22.50
2023-12-20T09:38:47.881Z,17.90
2023-12-20T09:42:36.413Z,23.50
2023-12-20T09:46:02.248Z,27.40
2023-12-20T09:49:31.212Z,26.20
2023-12-20T09:53:00.945Z,23.30
2023-12-20T09:56:12.593Z,28.60
2023-12-20T09:58:52.378Z,32.50
2023-12-20T10:01:58.498Z,46.10
2023-12-20T10:04:35.768Z,48.70
2023-12-20T10:07:31.600Z,47.40
2023-12-20T10:10:20.940Z,38.30
2023-12-20T10:13:11.620Z,39.60
2023-12-20T10:15:56.240Z,40.20
2023-12-20T10:18:38.237Z,45.90
2023-12-20T10:21:25.312Z,46.70
2023-12-20T10:24:05.354Z,48.40
2023-12-20T10:26:38.776Z,52.60
2023-12-20T10:29:38.825Z,52.00
2023-12-20T10:32:35.100Z,47.10
2023-12-20T10:35:25.532Z,44.10
2023-12-20T10:38:16.182Z,41.50
2023-12-20T10:41:01.103Z,41.30
2023-12-20T10:44:01.125Z,35.90
2023-12-20T10:46:38.043Z,30.10
2023-12-20T10:49:51.990Z,29.30
2023-12-20T10:52:47.691Z,29.60
2023-12-20T10:56:19.637Z,28.30
2023-12-20T10:59:11.080Z,31.20
2023-12-20T11:01:48.462Z,28.70
2023-12-20T11:04:27.478Z,35.60
2023-12-20T11:07:46.870Z,31.50
2023-12-20T11:10:46.085Z,34.70
2023-12-20T11:13:59.628Z,34.20
2023-12-20T11:16:41.534Z,32.80
2023-12-20T11:19:21.485Z,32.30
2023-12-20T11:22:07.300Z,28.80
2023-12-20T11:25:25.766Z,30.80
2023-12-20T11:28:21.639Z,29.70
2023-12-20T11:31:21.922Z,29.70
2023-12-20T11:34:47.214Z,29.80
2023-12-20T11:41:15.579Z,27.90
2023-12-20T11:43:53.809Z,26.00
2023-12-20T11:46:36.842Z,27.80
2023-12-20T11:49:15.048Z,26.60
2023-12-20T11:52:01.954Z,22.70
2023-12-20T11:54:40.655Z,22.20
2023-12-20T11:57:11.861Z,25.90
2023-12-20T11:59:53.146Z,18.30
2023-12-20T12:03:16.242Z,21.50
2023-12-20T12:06:15.572Z,23.70
2023-12-20T12:09:55.896Z,23.20
2023-12-20T12:13:43.524Z,26.00
2023-12-20T12:17:26.552Z,33.50
2023-12-20T12:20:53.423Z,38.90
2023-12-20T12:23:41.515Z,36.50
2023-12-20T12:28:52.241Z,42.80
2023-12-20T12:32:20.048Z,35.70
2023-12-20T12:35:15.128Z,52.30
2023-12-20T12:37:52.630Z,36.50
2023-12-20T12:40:34.670Z,32.30
2023-12-20T12:43:19.046Z,37.50
2023-12-20T12:45:47.971Z,32.90
2023-12-20T12:48:29.480Z,30.00
2023-12-20T12:51:14.609Z,30.80
2023-12-20T12:53:47.777Z,32.70
2023-12-20T12:56:56.932Z,37.50
2023-12-20T12:59:34.465Z,39.40
2023-12-20T13:02:14.798Z,40.90
2023-12-20T13:05:09.585Z,30.10
2023-12-20T13:08:13.281Z,29.50
2023-12-20T13:11:02.131Z,28.80
2023-12-20T13:14:10.849Z,30.20
2023-12-20T13:16:53.284Z,31.70
2023-12-20T13:19:22.261Z,33.40
2023-12-20T13:21:53.911Z,30.60
2023-12-20T13:24:37.120Z,28.90
2023-12-20T13:28:26.210Z,37.00
2023-12-20T13:31:37.721Z,41.60
2023-12-20T13:34:14.178Z,34.00
2023-12-20T13:37:17.798Z,39.50
2023-12-20T13:39:51.199Z,38.60
2023-12-20T13:42:46.717Z,32.90
2023-12-20T13:45:26.593Z,38.20
2023-12-20T13:48:24.430Z,37.30
2023-12-20T13:51:06.546Z,35.90
2023-12-20T13:54:04.113Z,36.20
2023-12-20T13:56:40.566Z,35.30
2023-12-20T13:59:13.880Z,29.30
2023-12-20T14:01:42.727Z,32.20
2023-12-20T14:04:12.443Z,32.40
2023-12-20T14:07:12.459Z,26.90
2023-12-20T14:10:00.662Z,25.50
2023-12-20T14:12:36.902Z,29.80
2023-12-20T14:15:59.417Z,31.20
2023-12-20T14:19:38.726Z,32.20
2023-12-20T14:22:47.319Z,27.50
2023-12-20T14:26:14.565Z,28.20
2023-12-20T14:28:48.658Z,26.20
2023-12-20T14:31:20.308Z,24.50
2023-12-20T14:33:59.043Z,24.80
2023-12-20T14:36:58.948Z,23.00
2023-12-20T14:39:30.667Z,31.20
2023-12-20T14:42:01.597Z,33.20
2023-12-20T14:45:05.927Z,29.60
2023-12-20T14:47:38.026Z,33.60
2023-12-20T14:50:18.272Z,31.90
2023-12-20T14:52:55.447Z,32.60
2023-12-20T14:55:57.315Z,36.60
2023-12-20T14:58:40.408Z,31.40
2023-12-20T15:01:25.445Z,31.90
2023-12-20T15:04:01.933Z,36.90
2023-12-20T15:06:33.004Z,34.50
2023-12-20T15:09:47.212Z,37.50
2023-12-20T15:12:21.267Z,34.80
2023-12-20T15:15:30.213Z,48.40
2023-12-20T15:19:12.814Z,84.30
2023-12-20T15:22:51.987Z,98.70
2023-12-20T15:26:31.406Z,151.40
2023-12-20T15:29:37.266Z,163.80
2023-12-20T15:33:10.951Z,104.60
2023-12-20T15:36:51.437Z,48.30
2023-12-20T15:39:59.486Z,44.90
2023-12-20T15:42:37.362Z,43.50
2023-12-20T15:45:31.088Z,54.30
2023-12-20T15:48:19.866Z,57.70
2023-12-20T15:51:15.926Z,58.40
2023-12-20T15:53:49.261Z,45.60
2023-12-20T15:56:29.548Z,60.90
2023-12-20T15:59:51.606Z,42.30
2023-12-20T16:02:24.377Z,40.00
2023-12-20T16:05:23.441Z,51.40
2023-12-20T16:08:04.875Z,47.10
2023-12-20T16:10:53.249Z,43.10
2023-12-20T16:13:30.387Z,40.70
2023-12-20T16:16:14.987Z,45.90
2023-12-20T16:18:51.473Z,44.00
2023-12-20T16:21:28.278Z,34.60
2023-12-20T16:23:59.859Z,37.50
2023-12-20T16:26:29.344Z,39.40
2023-12-20T16:29:00.689Z,34.60
2023-12-20T16:31:32.332Z,47.90
2023-12-20T16:34:13.069Z,43.20
2023-12-20T16:36:59.617Z,47.50
2023-12-20T16:39:36.165Z,49.10
2023-12-20T16:42:13.273Z,43.00
2023-12-20T16:44:45.325Z,51.70
2023-12-20T16:47:17.090Z,44.60
2023-12-20T16:49:48.028Z,48.20
2023-12-20T16:52:52.258Z,52.10
2023-12-20T16:56:06.309Z,48.70
2023-12-20T16:59:05.683Z,48.30
2023-12-20T17:01:50.109Z,46.60
2023-12-20T17:04:47.656Z,41.60
2023-12-20T17:08:21.492Z,49.60
2023-12-20T17:11:19.632Z,37.90
2023-12-20T17:13:53.661Z,72.40
2023-12-20T17:17:04.387Z,78.70
2023-12-20T17:20:08.466Z,57.50
2023-12-20T17:22:42.876Z,59.50
2023-12-20T17:25:24.375Z,54.10
2023-12-20T17:28:17.775Z,48.80
2023-12-20T17:31:22.033Z,59.40
2023-12-20T17:34:13.952Z,67.20
2023-12-20T17:37:03.290Z,52.90
2023-12-20T17:40:19.137Z,66.30
2023-12-20T17:43:03.463Z,57.00
2023-12-20T17:46:04.385Z,53.20
2023-12-20T17:49:04.691Z,53.10
2023-12-20T17:51:53.133Z,38.50
2023-12-20T17:54:59.448Z,46.80
2023-12-20T17:57:45.662Z,44.90
2023-12-20T18:00:30.446Z,47.00
2023-12-20T18:03:05.062Z,48.10
2023-12-20T18:05:41.178Z,47.00
2023-12-20T18:08:37.259Z,40.80
2023-12-20T18:11:17.420Z,47.40
2023-12-20T18:13:51.290Z,42.60
2023-12-20T18:16:32.018Z,45.70
2023-12-20T18:19:09.449Z,39.00
2023-12-20T18:21:43.497Z,45.50
2023-12-20T18:24:19.569Z,36.90
2023-12-20T18:27:02.839Z,34.80
2023-12-20T18:30:12.510Z,34.00
2023-12-20T18:32:49.687Z,41.60
2023-12-20T18:35:46.554Z,36.50
2023-12-20T18:38:35.942Z,34.60
2023-12-20T18:42:00.474Z,33.00
2023-12-20T18:45:31.534Z,37.60
2023-12-20T18:49:01.212Z,34.80
2023-12-20T18:52:41.328Z,42.40
2023-12-20T18:55:16.718Z,49.80
2023-12-20T18:58:49.297Z,40.30
2023-12-20T19:02:14.211Z,38.70
2023-12-20T19:05:25.851Z,50.30
2023-12-20T19:08:12.724Z,64.70
2023-12-20T19:10:52.291Z,56.30
2023-12-20T19:13:32.615Z,59.30
2023-12-20T19:16:09.835Z,62.10
2023-12-20T19:18:47.611Z,66.70
2023-12-20T19:21:30.536Z,62.00
2023-12-20T19:24:49.677Z,59.60
2023-12-20T19:27:18.140Z,71.50
2023-12-20T19:29:49.807Z,63.50
2023-12-20T19:32:23.436Z,59.90
2023-12-20T19:34:54.650Z,54.70
2023-12-20T19:37:32.129Z,53.10
2023-12-20T19:40:20.987Z,50.60
2023-12-20T19:42:58.161Z,40.90
2023-12-20T19:46:14.241Z,43.90
2023-12-20T19:49:08.745Z,52.00
2023-12-20T19:52:09.534Z,53.60
2023-12-20T19:55:22.233Z,56.80
2023-12-20T19:57:57.166Z,51.60
2023-12-20T20:00:31.622Z,48.60
2023-12-20T20:03:10.340Z,48.70
2023-12-20T20:08:44.530Z,48.20
2023-12-20T20:11:30.240Z,48.50
2023-12-20T20:14:15.474Z,52.40
2023-12-20T20:16:46.411Z,49.50
2023-12-20T20:21:57.646Z,47.60
2023-12-20T20:24:54.180Z,44.90
2023-12-20T20:27:23.506Z,55.50
2023-12-20T20:30:01.785Z,55.10
2023-12-20T20:32:30.335Z,50.20
2023-12-20T20:35:00.259Z,53.70
2023-12-20T20:37:41.091Z,51.90
2023-12-20T20:40:35.891Z,44.40
2023-12-20T20:44:07.192Z,60.80
2023-12-20T20:47:25.064Z,51.40
2023-12-20T20:50:59.602Z,65.70
2023-12-20T20:54:18.859Z,61.00
2023-12-20T20:57:10.896Z,60.90
2023-12-20T20:59:43.001Z,65.60
2023-12-20T21:02:33.552Z,56.10
2023-12-20T21:05:27.835Z,60.50
2023-12-20T21:08:20.489Z,58.10
2023-12-20T21:11:02.427Z,60.40
2023-12-20T21:13:40.812Z,53.30
2023-12-20T21:16:15.830Z,50.50
2023-12-20T21:18:49.774Z,53.40
2023-12-20T21:21:27.298Z,56.90
2023-12-20T21:24:17.579Z,49.70
2023-12-20T21:27:20.495Z,50.70
2023-12-20T21:29:56.735Z,54.20
2023-12-20T21:32:37.854Z,52.80
2023-12-20T21:35:43.246Z,59.20
2023-12-20T21:38:51.881Z,55.90
2023-12-20T21:41:27.836Z,47.10
2023-12-20T21:44:06.987Z,57.50
2023-12-20T21:46:45.310Z,56.70
2023-12-20T21:49:26.539Z,60.50
2023-12-20T21:51:58.233Z,65.70
2023-12-20T21:54:29.978Z,61.80
2023-12-20T21:57:13.275Z,60.30
2023-12-20T22:00:16.813Z,59.50
2023-12-20T22:03:25.988Z,54.60
2023-12-20T22:06:42.640Z,56.50
2023-12-20T22:10:16.573Z,40.80
2023-12-20T22:13:36.066Z,53.40
2023-12-20T22:16:08.780Z,41.90
2023-12-20T22:18:42.266Z,50.30
2023-12-20T22:21:13.607Z,46.60
2023-12-20T22:24:20.300Z,47.90
2023-12-20T22:27:13.551Z,64.40
2023-12-20T22:29:49.941Z,64.40
2023-12-20T22:32:42.336Z,84.10
2023-12-20T22:35:23.508Z,81.00
2023-12-20T22:38:33.707Z,54.70
2023-12-20T22:42:05.872Z,76.60
2023-12-20T22:45:28.935Z,71.20
2023-12-20T22:48:42.197Z,57.00
2023-12-20T22:51:44.197Z,45.30
2023-12-20T22:54:19.826Z,50.10
2023-12-20T22:56:55.874Z,58.50
2023-12-20T23:02:12.265Z,52.80
2023-12-20T23:05:02.205Z,55.60
2023-12-20T23:07:38.678Z,48.30
2023-12-20T23:10:12.996Z,53.90
2023-12-20T23:13:09.927Z,54.00
2023-12-20T23:15:46.370Z,59.20
2023-12-20T23:18:29.438Z,54.80
2023-12-20T23:21:04.920Z,58.70
2023-12-20T23:23:40.770Z,52.80
2023-12-20T23:26:17.285Z,41.10
2023-12-20T23:28:48.739Z,56.70
2023-12-20T23:31:33.199Z,46.10
2023-12-20T23:34:02.311Z,56.60
2023-12-20T23:36:36.786Z,39.40
2023-12-20T23:39:12.078Z,35.80
2023-12-20T23:41:45.158Z,39.20
2023-12-20T23:44:13.600Z,36.30
2023-12-20T23:46:42.365Z,37.30
2023-12-20T23:49:13.934Z,29.90
2023-12-20T23:51:57.809Z,39.70
2023-12-20T23:54:30.125Z,43.00
2023-12-20T23:57:04.172Z,52.00
